createdAt,value
2022-07-25T00:01:56.825Z,3.93
2022-07-25T00:04:24.855Z,3.77
2022-07-25T00:06:52.003Z,2.57
2022-07-25T00:09:19.171Z,1.93
2022-07-25T00:11:46.311Z,2.63
2022-07-25T00:14:13.738Z,2.17
2022-07-25T00:16:41.078Z,2.43
2022-07-25T00:19:08.258Z,2.37
2022-07-25T00:21:35.508Z,2.27
2022-07-25T00:24:02.820Z,2.27
2022-07-25T00:26:30.255Z,2.30
2022-07-25T00:28:57.444Z,2.60
2022-07-25T00:31:24.712Z,3.63
2022-07-25T00:33:51.824Z,2.30
2022-07-25T00:36:19.018Z,2.17
2022-07-25T00:38:46.126Z,2.67
2022-07-25T00:41:13.395Z,2.97
2022-07-25T00:43:44.104Z,2.30
2022-07-25T00:46:14.931Z,2.50
2022-07-25T00:48:46.411Z,3.10
2022-07-25T00:51:13.632Z,2.80
2022-07-25T00:53:40.841Z,2.00
2022-07-25T00:56:08.101Z,2.30
2022-07-25T00:58:35.485Z,2.33
2022-07-25T01:01:03.008Z,3.80
2022-07-25T01:03:30.307Z,2.57
2022-07-25T01:05:57.510Z,2.47
2022-07-25T01:08:24.704Z,2.17
2022-07-25T01:10:51.965Z,2.33
2022-07-25T01:13:19.120Z,2.40
2022-07-25T01:15:48.149Z,2.33
2022-07-25T01:18:15.330Z,2.83
2022-07-25T01:20:42.696Z,2.40
2022-07-25T01:23:09.857Z,2.37
2022-07-25T01:25:36.986Z,3.27
2022-07-25T01:28:04.122Z,1.80
2022-07-25T01:30:31.288Z,2.63
2022-07-25T01:32:58.459Z,2.90
2022-07-25T01:35:25.585Z,1.80
2022-07-25T01:37:52.709Z,3.47
2022-07-25T01:40:19.836Z,2.60
2022-07-25T01:42:46.962Z,2.50
2022-07-25T01:45:14.398Z,2.10
2022-07-25T01:47:41.613Z,2.17
2022-07-25T01:50:09.551Z,2.80
2022-07-25T01:52:37.663Z,3.53
2022-07-25T01:55:04.970Z,2.77
2022-07-25T01:57:33.347Z,3.10
2022-07-25T02:00:04.654Z,2.80
2022-07-25T02:02:31.783Z,2.63
2022-07-25T02:04:59.229Z,2.40
2022-07-25T02:07:26.386Z,1.90
2022-07-25T02:09:56.907Z,2.40
2022-07-25T02:12:24.257Z,2.80
2022-07-25T02:14:51.383Z,2.20
2022-07-25T02:17:18.579Z,3.33
2022-07-25T02:19:45.840Z,2.87
2022-07-25T02:22:12.989Z,1.60
2022-07-25T02:24:40.100Z,3.07
2022-07-25T02:27:08.494Z,2.00
2022-07-25T02:29:35.602Z,2.90
2022-07-25T02:32:02.825Z,3.20
2022-07-25T02:34:29.941Z,1.90
2022-07-25T02:36:57.081Z,2.50
2022-07-25T02:39:25.376Z,2.63
2022-07-25T02:41:52.514Z,3.43
2022-07-25T02:44:19.617Z,2.03
2022-07-25T02:46:46.739Z,2.30
2022-07-25T02:49:14.231Z,2.37
2022-07-25T02:51:41.429Z,1.50
2022-07-25T02:54:08.590Z,2.47
2022-07-25T02:56:35.845Z,2.60
2022-07-25T02:59:03.007Z,2.97
2022-07-25T03:01:30.495Z,2.50
2022-07-25T03:03:57.912Z,2.77
2022-07-25T03:06:25.268Z,3.23
2022-07-25T03:08:52.405Z,2.33
2022-07-25T03:11:20.504Z,2.60
2022-07-25T03:13:47.607Z,3.00
2022-07-25T03:16:14.854Z,2.10
2022-07-25T03:18:41.975Z,3.50
2022-07-25T03:21:09.189Z,3.40
2022-07-25T03:23:36.305Z,3.20
2022-07-25T03:26:03.448Z,3.20
2022-07-25T03:28:30.582Z,1.60
2022-07-25T03:30:58.088Z,2.57
2022-07-25T03:33:25.181Z,2.17
2022-07-25T03:35:52.319Z,2.57
2022-07-25T03:38:19.450Z,2.87
2022-07-25T03:40:46.600Z,2.53
2022-07-25T03:43:13.768Z,2.73
2022-07-25T03:45:41.000Z,3.50
2022-07-25T03:48:08.251Z,3.80
2022-07-25T03:50:35.401Z,2.73
2022-07-25T03:53:02.525Z,2.20
2022-07-25T03:55:29.732Z,2.10
2022-07-25T03:57:56.846Z,3.50
2022-07-25T04:00:23.932Z,3.47
2022-07-25T04:02:51.254Z,1.83
2022-07-25T04:05:18.441Z,3.37
2022-07-25T04:07:45.668Z,3.53
2022-07-25T04:10:12.841Z,3.50
2022-07-25T04:12:40.096Z,2.50
2022-07-25T04:15:07.514Z,1.97
2022-07-25T04:17:34.714Z,2.30
2022-07-25T04:20:07.008Z,2.70
2022-07-25T04:22:35.342Z,1.87
2022-07-25T04:25:02.708Z,2.93
2022-07-25T04:27:29.833Z,2.33
2022-07-25T04:29:56.924Z,3.87
2022-07-25T04:32:24.115Z,2.20
2022-07-25T04:34:52.373Z,2.00
2022-07-25T04:37:19.603Z,2.07
2022-07-25T04:39:46.726Z,2.60
2022-07-25T04:42:13.957Z,2.63
2022-07-25T04:44:41.063Z,2.60
2022-07-25T04:47:08.357Z,2.90
2022-07-25T04:49:35.444Z,2.60
2022-07-25T04:52:02.585Z,3.23
2022-07-25T04:54:29.889Z,4.17
2022-07-25T04:56:57.038Z,2.90
2022-07-25T04:59:24.130Z,3.40
2022-07-25T05:01:51.599Z,3.60
2022-07-25T05:04:18.775Z,2.80
2022-07-25T05:06:45.938Z,3.30
2022-07-25T05:09:13.076Z,2.03
2022-07-25T05:11:45.112Z,1.20
2022-07-25T05:14:14.583Z,2.80
2022-07-25T05:16:41.758Z,3.07
2022-07-25T05:19:09.722Z,2.47
2022-07-25T05:21:38.227Z,3.50
2022-07-25T05:24:06.086Z,2.50
2022-07-25T05:26:33.445Z,2.90
2022-07-25T05:29:00.582Z,2.60
2022-07-25T05:31:27.784Z,1.73
2022-07-25T05:33:54.980Z,3.20
2022-07-25T05:36:22.165Z,1.90
2022-07-25T05:38:49.304Z,2.37
2022-07-25T05:41:16.461Z,2.30
2022-07-25T05:43:46.172Z,2.17
2022-07-25T05:46:13.353Z,3.47
2022-07-25T05:48:40.587Z,2.57
2022-07-25T05:51:07.798Z,1.77
2022-07-25T05:53:35.100Z,2.60
2022-07-25T05:56:02.276Z,4.60
2022-07-25T05:58:30.355Z,3.20
2022-07-25T06:00:58.265Z,3.73
2022-07-25T06:03:25.564Z,2.43
2022-07-25T06:05:52.711Z,2.47
2022-07-25T06:08:19.925Z,2.23
2022-07-25T06:10:49.657Z,2.73
2022-07-25T06:13:16.784Z,2.60
2022-07-25T06:15:47.854Z,2.53
2022-07-25T06:18:15.305Z,2.93
2022-07-25T06:20:42.555Z,5.10
2022-07-25T06:23:09.729Z,3.13
2022-07-25T06:25:36.857Z,2.27
2022-07-25T06:28:04.118Z,2.90
2022-07-25T06:30:31.252Z,3.17
2022-07-25T06:32:58.356Z,3.20
2022-07-25T06:35:26.077Z,2.17
2022-07-25T06:37:53.237Z,3.60
2022-07-25T06:40:20.321Z,2.20
2022-07-25T06:42:47.870Z,3.00
2022-07-25T06:45:16.364Z,2.40
2022-07-25T06:47:44.230Z,2.50
2022-07-25T06:50:12.665Z,2.97
2022-07-25T06:52:40.239Z,3.30
2022-07-25T06:55:07.902Z,2.53
2022-07-25T06:57:35.685Z,3.47
2022-07-25T07:00:06.093Z,1.80
2022-07-25T07:02:33.368Z,3.30
2022-07-25T07:05:00.514Z,2.00
2022-07-25T07:07:27.726Z,1.93
2022-07-25T07:09:54.880Z,2.53
2022-07-25T07:12:22.517Z,1.83
2022-07-25T07:14:49.650Z,2.10
2022-07-25T07:17:16.799Z,2.17
2022-07-25T07:19:45.811Z,2.60
2022-07-25T07:22:13.511Z,2.47
2022-07-25T07:24:44.271Z,3.03
2022-07-25T07:27:12.400Z,1.93
2022-07-25T07:29:39.648Z,2.77
2022-07-25T07:32:07.111Z,2.40
2022-07-25T07:34:34.544Z,2.60
2022-07-25T07:37:02.558Z,3.77
2022-07-25T07:39:29.874Z,2.37
2022-07-25T07:41:56.987Z,2.90
2022-07-25T07:44:24.136Z,2.60
2022-07-25T07:46:51.378Z,3.73
2022-07-25T07:49:18.850Z,3.20
2022-07-25T07:51:46.032Z,3.73
2022-07-25T07:54:32.291Z,3.80
2022-07-25T07:56:59.386Z,3.63
2022-07-25T07:59:26.717Z,3.10
2022-07-25T08:01:55.290Z,2.83
2022-07-25T08:04:22.474Z,3.17
2022-07-25T08:06:49.594Z,3.03
2022-07-25T08:09:17.075Z,3.50
2022-07-25T08:11:44.268Z,2.90
2022-07-25T08:14:11.573Z,2.73
2022-07-25T08:16:38.787Z,2.70
2022-07-25T08:19:06.040Z,3.40
2022-07-25T08:21:33.257Z,2.60
2022-07-25T08:24:00.469Z,3.97
2022-07-25T08:26:27.931Z,2.93
2022-07-25T08:29:17.181Z,3.20
2022-07-25T08:31:42.357Z,3.50
2022-07-25T08:34:10.006Z,2.63
2022-07-25T08:36:38.257Z,3.53
2022-07-25T08:39:05.594Z,3.90
2022-07-25T08:41:34.010Z,2.57
2022-07-25T08:44:02.751Z,3.57
2022-07-25T08:46:30.347Z,4.03
2022-07-25T08:48:57.885Z,3.37
2022-07-25T08:51:25.269Z,2.43
2022-07-25T08:53:52.773Z,2.50
2022-07-25T08:56:21.348Z,3.67
2022-07-25T08:58:49.597Z,3.63
2022-07-25T09:01:17.104Z,2.23
2022-07-25T09:03:44.629Z,3.43
2022-07-25T09:06:15.688Z,3.53
2022-07-25T09:08:56.539Z,3.63
2022-07-25T09:11:27.659Z,3.37
2022-07-25T09:13:59.202Z,4.43
2022-07-25T09:16:30.572Z,3.13
2022-07-25T09:19:17.204Z,3.20
2022-07-25T09:21:45.912Z,2.73
2022-07-25T09:24:15.986Z,2.77
2022-07-25T09:26:44.341Z,2.77
2022-07-25T09:29:17.089Z,2.73
2022-07-25T09:31:44.396Z,2.63
2022-07-25T09:34:12.777Z,3.23
2022-07-25T09:36:55.369Z,2.63
2022-07-25T09:39:22.529Z,3.57
2022-07-25T09:41:50.995Z,3.53
2022-07-25T09:44:30.238Z,3.93
2022-07-25T09:46:59.057Z,5.20
2022-07-25T09:49:26.917Z,3.50
2022-07-25T09:51:54.066Z,3.70
2022-07-25T09:54:21.419Z,2.90
2022-07-25T09:56:48.629Z,6.50
2022-07-25T09:59:15.783Z,3.10
2022-07-25T10:01:46.403Z,3.17
2022-07-25T10:04:17.250Z,2.40
2022-07-25T10:06:50.368Z,3.40
2022-07-25T10:09:17.702Z,2.60
2022-07-25T10:12:04.364Z,2.57
2022-07-25T10:14:31.634Z,3.40
2022-07-25T10:16:58.761Z,2.73
2022-07-25T10:19:49.358Z,3.13
2022-07-25T10:22:25.904Z,2.87
2022-07-25T10:25:11.469Z,2.57
2022-07-25T10:27:53.565Z,2.37
2022-07-25T10:30:28.507Z,2.73
2022-07-25T10:32:58.608Z,2.40
2022-07-25T10:35:26.841Z,3.07
2022-07-25T10:37:57.919Z,3.37
2022-07-25T10:40:28.375Z,2.60
2022-07-25T10:43:15.720Z,3.47
2022-07-25T10:45:58.767Z,2.50
2022-07-25T10:48:26.079Z,1.93
2022-07-25T10:50:58.507Z,2.80
2022-07-25T10:53:31.484Z,2.47
2022-07-25T10:56:07.005Z,2.20
2022-07-25T10:58:44.784Z,2.40
2022-07-25T11:01:14.186Z,2.57
2022-07-25T11:03:45.052Z,2.67
2022-07-25T11:06:13.620Z,3.27
2022-07-25T11:08:40.976Z,3.23
2022-07-25T11:11:08.520Z,2.43
2022-07-25T11:13:39.258Z,2.40
2022-07-25T11:16:06.918Z,2.43
2022-07-25T11:18:38.886Z,2.10
2022-07-25T11:21:07.250Z,3.07
2022-07-25T11:23:35.239Z,2.67
2022-07-25T11:26:09.720Z,3.30
2022-07-25T11:28:40.676Z,2.80
2022-07-25T11:31:07.912Z,2.47
2022-07-25T11:33:38.604Z,2.67
2022-07-25T11:36:06.476Z,2.93
2022-07-25T11:38:33.886Z,2.10
2022-07-25T11:41:01.414Z,2.60
2022-07-25T11:43:28.600Z,2.40
2022-07-25T11:46:03.196Z,2.53
2022-07-25T11:48:41.202Z,3.20
2022-07-25T11:51:17.840Z,2.60
2022-07-25T11:53:46.969Z,3.23
2022-07-25T11:56:40.811Z,2.10
2022-07-25T11:59:02.213Z,2.73
2022-07-25T12:01:37.333Z,2.97
2022-07-25T12:04:20.470Z,2.83
2022-07-25T12:06:48.856Z,3.10
2022-07-25T12:09:19.305Z,2.50
2022-07-25T12:11:47.269Z,2.50
2022-07-25T12:14:14.455Z,2.27
2022-07-25T12:16:42.028Z,2.57
2022-07-25T12:19:10.491Z,2.57
2022-07-25T12:21:38.027Z,2.93
2022-07-25T12:24:05.376Z,2.43
2022-07-25T12:26:32.690Z,3.20
2022-07-25T12:28:59.816Z,3.03
2022-07-25T12:31:28.742Z,2.33
2022-07-25T12:33:56.392Z,2.70
2022-07-25T12:36:23.720Z,2.60
2022-07-25T12:38:50.888Z,2.40
2022-07-25T12:41:22.641Z,2.23
2022-07-25T12:43:49.913Z,3.60
2022-07-25T12:46:17.505Z,3.10
2022-07-25T12:48:44.928Z,3.13
2022-07-25T12:51:12.113Z,2.67
2022-07-25T12:53:42.434Z,2.67
2022-07-25T12:56:10.082Z,2.40
2022-07-25T12:58:37.888Z,2.40
2022-07-25T13:01:06.167Z,2.67
2022-07-25T13:03:33.627Z,2.33
2022-07-25T13:06:00.753Z,2.30
2022-07-25T13:08:27.985Z,2.60
2022-07-25T13:10:55.192Z,2.30
2022-07-25T13:13:22.313Z,2.50
2022-07-25T13:15:49.494Z,2.67
2022-07-25T13:18:16.656Z,2.53
2022-07-25T13:20:43.777Z,3.07
2022-07-25T13:23:10.961Z,2.10
2022-07-25T13:25:38.304Z,2.50
2022-07-25T13:28:11.084Z,2.10
2022-07-25T13:30:38.455Z,2.30
2022-07-25T13:33:05.779Z,2.50
2022-07-25T13:35:38.815Z,2.53
2022-07-25T13:38:06.523Z,2.40
2022-07-25T13:40:33.957Z,1.90
2022-07-25T13:43:01.193Z,2.10
2022-07-25T13:45:29.413Z,1.90
2022-07-25T13:48:26.647Z,2.00
2022-07-25T13:50:44.517Z,1.90
2022-07-25T13:53:11.976Z,1.60
2022-07-25T13:55:39.655Z,3.10
2022-07-25T13:58:06.887Z,2.23
2022-07-25T14:00:34.028Z,1.87
2022-07-25T14:03:01.524Z,1.67
2022-07-25T14:05:28.667Z,2.50
2022-07-25T14:07:55.907Z,1.53
2022-07-25T14:10:23.072Z,2.30
2022-07-25T14:12:50.311Z,2.20
2022-07-25T14:15:17.658Z,2.50
2022-07-25T14:17:45.021Z,2.23
2022-07-25T14:20:13.022Z,1.87
2022-07-25T14:22:42.255Z,1.70
2022-07-25T14:25:10.264Z,1.90
2022-07-25T14:27:37.588Z,2.03
2022-07-25T14:30:05.917Z,2.10
2022-07-25T14:32:33.041Z,2.10
2022-07-25T14:35:01.978Z,2.13
2022-07-25T14:37:31.317Z,2.00
2022-07-25T14:40:02.188Z,1.97
2022-07-25T14:42:29.989Z,2.40
2022-07-25T14:44:57.162Z,2.30
2022-07-25T14:47:27.370Z,1.80
2022-07-25T14:49:54.953Z,2.77
2022-07-25T14:52:23.479Z,2.07
2022-07-25T14:54:50.594Z,2.20
2022-07-25T14:57:17.757Z,2.40
2022-07-25T14:59:44.928Z,2.90
2022-07-25T15:02:12.518Z,2.80
2022-07-25T15:04:39.692Z,2.50
2022-07-25T15:07:07.266Z,2.10
2022-07-25T15:09:34.716Z,2.23
2022-07-25T15:12:01.812Z,1.60
2022-07-25T15:14:29.460Z,2.80
2022-07-25T15:16:56.772Z,2.20
2022-07-25T15:19:23.974Z,2.07
2022-07-25T15:21:53.049Z,2.60
2022-07-25T15:24:20.342Z,3.23
2022-07-25T15:26:48.138Z,2.27
2022-07-25T15:29:20.517Z,2.73
2022-07-25T15:31:48.852Z,2.50
2022-07-25T15:34:16.232Z,2.20
2022-07-25T15:36:43.521Z,2.20
2022-07-25T15:39:11.382Z,2.37
2022-07-25T15:41:38.742Z,2.70
2022-07-25T15:44:05.881Z,2.70
2022-07-25T15:46:33.121Z,1.83
2022-07-25T15:49:00.694Z,2.53
2022-07-25T15:51:27.913Z,2.43
2022-07-25T15:53:55.169Z,2.80
2022-07-25T15:56:22.393Z,3.07
2022-07-25T15:58:49.630Z,3.20
2022-07-25T16:01:17.010Z,4.10
2022-07-25T16:03:44.290Z,2.57
2022-07-25T16:06:14.312Z,1.97
2022-07-25T16:08:45.645Z,3.03
2022-07-25T16:11:13.238Z,2.30
2022-07-25T16:13:41.874Z,2.73
2022-07-25T16:16:09.197Z,2.23
2022-07-25T16:18:36.431Z,2.23
2022-07-25T16:21:03.839Z,2.17
2022-07-25T16:23:36.208Z,2.47
2022-07-25T16:26:06.013Z,1.63
2022-07-25T16:28:33.908Z,3.37
2022-07-25T16:31:01.202Z,2.70
2022-07-25T16:33:28.580Z,2.40
2022-07-25T16:35:55.744Z,2.33
2022-07-25T16:38:23.003Z,3.33
2022-07-25T16:40:50.213Z,2.60
2022-07-25T16:43:17.329Z,2.97
2022-07-25T16:45:44.524Z,2.10
2022-07-25T16:48:11.802Z,2.70
2022-07-25T16:50:38.969Z,2.40
2022-07-25T16:53:06.106Z,2.00
2022-07-25T16:55:34.272Z,4.47
2022-07-25T16:58:01.433Z,2.20
2022-07-25T17:00:28.590Z,2.23
2022-07-25T17:02:55.768Z,2.50
2022-07-25T17:05:23.101Z,1.90
2022-07-25T17:07:57.132Z,1.90
2022-07-25T17:10:26.642Z,2.50
2022-07-25T17:12:53.768Z,1.50
2022-07-25T17:15:20.959Z,1.80
2022-07-25T17:17:48.231Z,1.40
2022-07-25T17:20:15.446Z,1.67
2022-07-25T17:22:42.619Z,2.00
2022-07-25T17:25:09.934Z,1.67
2022-07-25T17:27:37.314Z,1.53
2022-07-25T17:30:04.974Z,2.13
2022-07-25T17:32:32.314Z,1.50
2022-07-25T17:34:59.764Z,2.00
2022-07-25T17:37:27.750Z,2.20
2022-07-25T17:39:55.133Z,1.00
2022-07-25T17:42:22.516Z,1.63
2022-07-25T17:44:50.659Z,2.03
2022-07-25T17:47:17.973Z,2.27
2022-07-25T17:49:45.382Z,1.77
2022-07-25T17:52:12.568Z,2.43
2022-07-25T17:54:40.136Z,2.63
2022-07-25T17:57:07.337Z,2.50
2022-07-25T17:59:34.484Z,2.30
2022-07-25T18:02:02.320Z,2.40
2022-07-25T18:04:29.585Z,2.33
2022-07-25T18:06:57.017Z,2.30
2022-07-25T18:09:24.294Z,2.77
2022-07-25T18:11:51.813Z,1.50
2022-07-25T18:14:19.008Z,2.37
2022-07-25T18:16:46.206Z,1.73
2022-07-25T18:19:13.764Z,1.60
2022-07-25T18:21:41.018Z,1.73
2022-07-25T18:24:08.723Z,1.63
2022-07-25T18:26:36.214Z,1.87
2022-07-25T18:29:03.397Z,1.87
2022-07-25T18:31:30.766Z,2.00
2022-07-25T18:33:57.943Z,2.23
2022-07-25T18:36:25.194Z,1.70
2022-07-25T18:38:55.208Z,1.10
2022-07-25T18:41:30.644Z,1.60
2022-07-25T18:43:57.940Z,1.30
2022-07-25T18:46:26.226Z,1.27
2022-07-25T18:48:54.461Z,1.27
2022-07-25T18:51:21.970Z,1.80
2022-07-25T18:53:49.677Z,1.53
2022-07-25T18:56:17.430Z,1.63
2022-07-25T18:58:44.796Z,1.13
2022-07-25T19:01:12.537Z,1.93
2022-07-25T19:03:40.818Z,1.17
2022-07-25T19:06:08.768Z,1.40
2022-07-25T19:08:36.169Z,1.10
2022-07-25T19:11:03.290Z,1.00
2022-07-25T19:16:19.376Z,1.60
2022-07-25T19:18:46.798Z,0.73
2022-07-25T19:21:13.970Z,0.70
2022-07-25T19:23:41.118Z,1.67
2022-07-25T19:26:08.279Z,1.23
2022-07-25T19:28:38.419Z,0.70
2022-07-25T19:31:05.736Z,0.87
2022-07-25T19:33:34.990Z,1.20
2022-07-25T19:36:04.087Z,1.60
2022-07-25T19:38:31.364Z,1.10
2022-07-25T19:40:58.937Z,0.83
2022-07-25T19:43:26.064Z,1.03
2022-07-25T19:45:53.225Z,0.73
2022-07-25T19:48:23.713Z,1.50
2022-07-25T19:50:51.538Z,0.80
2022-07-25T19:53:18.771Z,0.97
2022-07-25T19:55:45.989Z,0.77
2022-07-25T19:58:13.134Z,0.60
2022-07-25T20:00:40.464Z,0.90
2022-07-25T20:03:07.723Z,1.00
2022-07-25T20:05:35.682Z,0.83
2022-07-25T20:08:02.819Z,1.47
2022-07-25T20:10:29.925Z,1.20
2022-07-25T20:13:01.199Z,1.10
2022-07-25T20:15:28.893Z,0.70
2022-07-25T20:17:56.924Z,0.57
2022-07-25T20:20:24.318Z,0.90
2022-07-25T20:22:52.127Z,0.60
2022-07-25T20:25:19.464Z,1.00
2022-07-25T20:27:49.581Z,0.50
2022-07-25T20:30:17.246Z,1.20
2022-07-25T20:32:44.488Z,0.50
2022-07-25T20:35:11.815Z,0.93
2022-07-25T20:37:39.000Z,1.13
2022-07-25T20:40:06.812Z,0.73
2022-07-25T20:42:38.355Z,0.80
2022-07-25T20:45:08.948Z,0.97
2022-07-25T20:47:36.154Z,0.77
2022-07-25T20:50:03.286Z,1.57
2022-07-25T20:52:32.394Z,1.10
2022-07-25T20:54:59.576Z,0.80
2022-07-25T20:57:26.766Z,0.90
2022-07-25T20:59:54.169Z,1.23
2022-07-25T21:02:21.361Z,0.80
2022-07-25T21:04:48.708Z,0.67
2022-07-25T21:07:16.726Z,0.80
2022-07-25T21:09:43.910Z,1.33
2022-07-25T21:12:11.370Z,0.53
2022-07-25T21:14:38.529Z,0.40
2022-07-25T21:17:05.957Z,1.07
2022-07-25T21:19:33.482Z,0.87
2022-07-25T21:22:00.612Z,0.70
2022-07-25T21:24:28.172Z,0.87
2022-07-25T21:26:55.347Z,1.03
2022-07-25T21:29:22.593Z,0.90
2022-07-25T21:31:49.825Z,0.40
2022-07-25T21:34:17.059Z,1.10
2022-07-25T21:36:44.280Z,1.00
2022-07-25T21:39:11.453Z,1.27
2022-07-25T21:41:38.555Z,0.60
2022-07-25T21:44:06.178Z,0.80
2022-07-25T21:46:33.577Z,0.70
2022-07-25T21:49:29.957Z,0.43
2022-07-25T21:52:06.787Z,0.90
2022-07-25T21:54:34.008Z,1.50
2022-07-25T21:57:01.117Z,0.90
2022-07-25T21:59:28.270Z,0.70
2022-07-25T22:01:55.367Z,1.20
2022-07-25T22:04:22.533Z,1.03
2022-07-25T22:06:49.648Z,0.63
2022-07-25T22:09:16.776Z,0.67
2022-07-25T22:11:46.450Z,0.67
2022-07-25T22:14:14.078Z,0.70
2022-07-25T22:16:41.193Z,1.20
2022-07-25T22:19:09.048Z,0.93
2022-07-25T22:21:36.514Z,0.50
2022-07-25T22:24:03.770Z,0.40
2022-07-25T22:26:30.888Z,0.90
2022-07-25T22:28:58.144Z,0.63
2022-07-25T22:31:25.295Z,0.40
2022-07-25T22:33:52.417Z,0.60
2022-07-25T22:36:19.538Z,1.33
2022-07-25T22:38:46.673Z,0.70
2022-07-25T22:41:13.900Z,0.63
2022-07-25T22:43:56.746Z,0.90
2022-07-25T22:46:26.645Z,0.50
2022-07-25T22:48:53.952Z,0.77
2022-07-25T22:51:21.284Z,0.90
2022-07-25T22:53:48.429Z,1.20
2022-07-25T22:56:16.781Z,0.80
2022-07-25T22:58:43.936Z,0.60
2022-07-25T23:01:15.798Z,0.93
2022-07-25T23:03:42.960Z,0.70
2022-07-25T23:06:10.341Z,0.70
2022-07-25T23:08:37.587Z,0.70
2022-07-25T23:11:06.097Z,0.73
2022-07-25T23:13:33.867Z,0.53
2022-07-25T23:16:03.282Z,0.70
2022-07-25T23:18:30.833Z,0.53
2022-07-25T23:20:58.090Z,0.97
2022-07-25T23:23:25.482Z,0.77
2022-07-25T23:25:53.172Z,1.00
2022-07-25T23:28:20.902Z,0.70
2022-07-25T23:30:48.025Z,0.70
2022-07-25T23:33:15.118Z,0.60
2022-07-25T23:35:42.328Z,0.50
2022-07-25T23:38:10.904Z,1.13
2022-07-25T23:40:38.081Z,0.60
2022-07-25T23:43:05.197Z,0.90
2022-07-25T23:45:32.864Z,0.87
2022-07-25T23:47:59.968Z,2.10
2022-07-25T23:50:27.149Z,0.70
2022-07-25T23:52:54.272Z,0.77
2022-07-25T23:55:21.382Z,0.60
2022-07-25T23:57:48.553Z,0.60
